Portada
METAR-TAF:

METAR-TAF

Aeropuertos :

Karpathos, Grecia

latitud: 35-24-51N, longitud: 027-08-54E, altitud: 6 m

Observación

El informe se hizo hace 6 horas y 43 minutos, a las 20:20 UTC
Viento 15 kt del oeste
Temperatura 26°C
Humedad 89%
Presión 1006 hPa
Visibilidad 10 km o más
Escasas nubes a una altura de 300 ft

METAR: LGKP 222020Z 28015KT 9999 FEW003 26/24 Q1006

Hora: 06:03 (03:03 UTC)

Pronóstico

El informe se hizo hace 1 hora y 3 minutos, a las 02:00 UTC
Pronóstico válido del 23 a las 03 UTC al 23 a las 12 UTC
Viento 12 kt del oeste-noroeste
Visibilidad 10 km o más
sin nubes por debajo de 1500 m y sin presencia de cumulonimbus.

TAF: LGKP 230200Z 2303/2312 29012KT CAVOK

Observaciones y pronósticos meteorológicos de más de 4000 aeropuertos (mensajes METAR y TAF).

Los puntos amarillos y rojos representan las estaciones disponibles.

Ponga el ratón en el punto deseado para ver el nombre de la estación.

Haga clic para ver las observaciones y los pronósticos meteorológicos.

Para cambiar el mapa : haga clic en los botones verdes con una cruz de color negro para hacer un zoom, en el botón verde con un guión para alejar o en las flechas verdes para mapas adyacentes.


METAR-TAF: